createdAt,value
2023-05-05T10:26:05.376Z,30.51
2023-05-05T10:27:04.952Z,30.38
2023-05-05T10:28:04.965Z,30.07
2023-05-05T10:29:05.027Z,30.18
2023-05-05T10:30:04.979Z,30.26
2023-05-05T10:31:10.001Z,30.46
2023-05-05T10:32:21.495Z,30.43
2023-05-05T10:33:18.497Z,30.55
2023-05-05T10:34:06.188Z,30.66
2023-05-05T10:35:04.899Z,30.59
2023-05-05T10:36:04.986Z,30.52
2023-05-05T10:37:05.015Z,30.44
2023-05-05T10:38:04.945Z,30.47
2023-05-05T10:39:04.948Z,30.11
2023-05-05T10:40:04.872Z,30.04
2023-05-05T10:41:04.878Z,30.32
2023-05-05T10:42:04.922Z,30.57
2023-05-05T10:43:04.918Z,30.55
2023-05-05T10:44:04.893Z,30.44
2023-05-05T10:45:04.916Z,30.41
2023-05-05T10:46:04.860Z,30.22
2023-05-05T10:47:04.844Z,30.24
2023-05-05T10:48:04.902Z,30.03
2023-05-05T10:49:04.825Z,30.01
2023-05-05T10:50:04.851Z,29.97
2023-05-05T10:51:04.807Z,29.95
2023-05-05T10:52:04.822Z,29.95
2023-05-05T10:53:04.791Z,29.79
2023-05-05T10:54:04.825Z,29.88
2023-05-05T10:55:04.792Z,29.88
2023-05-05T10:56:04.769Z,29.95
2023-05-05T10:57:04.858Z,29.82
2023-05-05T10:58:04.788Z,29.87
2023-05-05T10:59:04.774Z,29.67
2023-05-05T11:00:04.759Z,29.69
2023-05-05T11:01:04.741Z,29.65
2023-05-05T11:02:04.772Z,29.61
2023-05-05T11:03:04.786Z,29.66
2023-05-05T11:04:04.751Z,29.70
2023-05-05T11:05:04.766Z,29.69
2023-05-05T11:06:04.699Z,29.55
2023-05-05T11:07:04.688Z,29.52
2023-05-05T11:08:04.713Z,29.60
2023-05-05T11:09:04.684Z,29.69
2023-05-05T11:10:04.659Z,29.67
2023-05-05T11:11:04.656Z,29.65
2023-05-05T11:12:04.648Z,29.74
2023-05-05T11:13:04.702Z,29.83
2023-05-05T11:14:04.774Z,29.60
2023-05-05T11:15:04.698Z,29.53
2023-05-05T11:16:04.714Z,29.67
2023-05-05T11:17:04.650Z,29.75
2023-05-05T11:18:07.037Z,29.74
2023-05-05T11:19:04.642Z,29.69
2023-05-05T11:20:04.642Z,29.73
2023-05-05T11:21:04.653Z,29.76
2023-05-05T11:22:04.640Z,29.88
2023-05-05T11:23:05.029Z,29.92
2023-05-05T11:24:04.632Z,30.05
2023-05-05T11:25:04.602Z,30.04
2023-05-05T11:26:04.623Z,30.08
2023-05-05T11:27:04.584Z,30.07
2023-05-05T11:28:04.591Z,30.16
2023-05-05T11:29:04.608Z,30.19
2023-05-05T11:30:04.702Z,30.20
2023-05-05T11:31:04.650Z,30.23
2023-05-05T11:32:04.570Z,30.28
2023-05-05T11:33:04.614Z,30.25
2023-05-05T11:34:04.570Z,30.24
2023-05-05T11:35:04.539Z,30.31
2023-05-05T11:36:06.377Z,30.41
2023-05-05T11:37:04.545Z,30.40
2023-05-05T11:38:04.532Z,30.46
2023-05-05T11:39:04.604Z,30.43
2023-05-05T11:40:04.679Z,30.44
2023-05-05T11:41:04.729Z,30.44
2023-05-05T11:42:09.414Z,30.44
2023-05-05T11:43:05.756Z,30.46
2023-05-05T11:44:04.784Z,30.47
2023-05-05T11:45:04.767Z,30.47
2023-05-05T11:46:04.830Z,30.47
2023-05-05T11:47:04.724Z,30.48
2023-05-05T11:48:04.716Z,30.49
2023-05-05T11:49:04.725Z,30.47
2023-05-05T11:50:04.717Z,30.48
2023-05-05T11:51:07.314Z,30.49
2023-05-05T11:52:04.952Z,30.47
2023-05-05T11:53:04.976Z,30.46
2023-05-05T11:54:05.080Z,30.46
2023-05-05T11:55:05.118Z,30.48
2023-05-05T11:56:05.200Z,30.48
2023-05-05T11:57:05.252Z,30.47
2023-05-05T11:58:05.295Z,30.49
2023-05-05T11:59:05.318Z,30.47
2023-05-05T12:00:05.417Z,30.47
2023-05-05T12:01:05.457Z,30.48
2023-05-05T12:02:05.573Z,30.44
2023-05-05T12:03:05.775Z,30.47
2023-05-05T12:04:05.727Z,30.45
2023-05-05T12:05:05.683Z,30.46
2023-05-05T12:06:05.720Z,30.44
2023-05-05T12:07:05.789Z,30.45
2023-05-05T12:08:05.814Z,30.42
2023-05-05T12:09:05.905Z,30.44
2023-05-05T12:10:06.021Z,30.42
2023-05-05T12:11:06.007Z,30.36
2023-05-05T12:12:06.031Z,30.35
2023-05-05T12:13:06.137Z,30.31
2023-05-05T12:14:06.129Z,30.23
2023-05-05T12:15:06.202Z,30.17
2023-05-05T12:16:06.238Z,30.08
2023-05-05T12:17:06.314Z,29.97
2023-05-05T12:18:06.447Z,29.89
2023-05-05T12:19:06.411Z,29.87
2023-05-05T12:20:06.855Z,29.78
2023-05-05T12:21:06.529Z,29.61
2023-05-05T12:22:06.577Z,29.51
2023-05-05T12:23:06.695Z,29.36
2023-05-05T12:24:06.760Z,29.24
2023-05-05T12:25:06.778Z,29.12
2023-05-05T12:26:06.854Z,29.10
2023-05-05T12:27:06.899Z,28.98
2023-05-05T12:28:06.983Z,28.88
2023-05-05T12:29:07.031Z,28.78
2023-05-05T12:30:07.338Z,28.66
2023-05-05T12:31:07.247Z,28.56
2023-05-05T12:32:07.246Z,28.46
2023-05-05T12:33:07.283Z,28.38
2023-05-05T12:34:07.344Z,28.31
2023-05-05T12:35:07.341Z,28.18
2023-05-05T12:36:07.380Z,28.14
2023-05-05T12:37:07.435Z,28.06
2023-05-05T12:38:07.541Z,28.09
2023-05-05T12:39:07.577Z,28.03
2023-05-05T12:40:07.802Z,28.02
2023-05-05T12:41:07.662Z,27.80
2023-05-05T12:43:07.730Z,27.69
2023-05-05T12:44:07.680Z,27.67
2023-05-05T12:45:07.707Z,27.74
2023-05-05T12:46:07.786Z,27.72
2023-05-05T12:47:07.704Z,28.30
2023-05-05T12:48:07.685Z,28.25
2023-05-05T12:49:07.691Z,28.19
2023-05-05T12:50:07.991Z,27.80
2023-05-05T12:51:07.659Z,27.45
2023-05-05T12:52:07.644Z,27.51
2023-05-05T12:53:07.638Z,28.16
2023-05-05T12:54:07.650Z,28.16
2023-05-05T12:55:07.852Z,27.74
2023-05-05T12:56:07.611Z,27.57
2023-05-05T12:57:07.646Z,27.52
2023-05-05T12:58:07.632Z,27.43
2023-05-05T12:59:07.758Z,27.50
2023-05-05T13:00:07.823Z,27.37
2023-05-05T13:01:07.677Z,27.38
2023-05-05T13:02:07.616Z,27.41
2023-05-05T13:03:07.829Z,27.42
2023-05-05T13:04:07.554Z,27.36
2023-05-05T13:05:07.728Z,27.26
2023-05-05T13:06:07.604Z,27.20
2023-05-05T13:07:07.561Z,27.18
2023-05-05T13:08:07.530Z,27.14
2023-05-05T13:09:07.593Z,27.16
2023-05-05T13:10:07.681Z,27.15
2023-05-05T13:11:07.504Z,27.01
2023-05-05T13:12:07.536Z,26.92
2023-05-05T13:13:07.485Z,26.90
2023-05-05T13:14:07.460Z,26.88
2023-05-05T13:15:07.896Z,26.83
2023-05-05T13:16:07.503Z,26.72
2023-05-05T13:17:07.491Z,26.73
2023-05-05T13:18:07.477Z,26.72
2023-05-05T13:19:07.427Z,26.67
2023-05-05T13:20:07.567Z,26.64
2023-05-05T13:21:07.526Z,26.61
2023-05-05T13:22:07.648Z,26.54
2023-05-05T13:23:07.565Z,26.54
2023-05-05T13:24:18.903Z,26.40
2023-05-05T13:25:08.776Z,26.51
2023-05-05T13:26:07.572Z,26.47
2023-05-05T13:27:07.556Z,26.48
2023-05-05T13:28:07.552Z,26.43
2023-05-05T13:29:07.592Z,26.41
2023-05-05T13:30:07.560Z,26.43
2023-05-05T13:31:07.596Z,26.41
2023-05-05T13:32:07.530Z,26.45
2023-05-05T13:33:07.590Z,26.36
2023-05-05T13:34:07.508Z,26.32
2023-05-05T13:35:07.720Z,26.42
2023-05-05T13:36:07.529Z,26.37
2023-05-05T13:37:07.526Z,26.46
2023-05-05T13:38:07.604Z,26.36
2023-05-05T13:39:07.503Z,26.35
2023-05-05T13:40:07.576Z,26.34
2023-05-05T13:41:07.566Z,26.33
2023-05-05T13:42:07.615Z,26.36
2023-05-05T13:43:07.626Z,26.31
2023-05-05T13:44:07.652Z,26.30
2023-05-05T13:45:07.906Z,26.24
2023-05-05T13:46:19.250Z,26.30
2023-05-05T13:47:08.704Z,26.26
2023-05-05T13:48:07.708Z,26.29
2023-05-05T13:49:07.677Z,26.32
2023-05-05T13:50:07.640Z,26.23
2023-05-05T13:51:07.616Z,26.20
2023-05-05T13:52:07.641Z,26.20
2023-05-05T13:53:07.670Z,26.25
2023-05-05T13:54:07.684Z,26.23
2023-05-05T13:55:07.787Z,26.15
2023-05-05T13:56:07.627Z,26.13
2023-05-05T13:57:07.583Z,26.16
2023-05-05T13:58:07.598Z,26.13
2023-05-05T13:59:07.666Z,26.12
2023-05-05T14:00:07.583Z,26.10
2023-05-05T14:01:07.705Z,26.05
2023-05-05T14:02:07.572Z,26.06
2023-05-05T14:03:07.550Z,26.07
2023-05-05T14:04:07.713Z,25.99
2023-05-05T14:05:07.787Z,25.97
2023-05-05T14:06:07.549Z,25.96
2023-05-05T14:07:07.605Z,25.95
2023-05-05T14:08:07.564Z,26.03
2023-05-05T14:09:07.598Z,26.03
2023-05-05T14:10:07.764Z,26.07
2023-05-05T14:11:07.631Z,26.15
2023-05-05T14:12:07.636Z,26.11
2023-05-05T14:13:07.732Z,26.11
2023-05-05T14:14:07.668Z,26.11
2023-05-05T14:15:07.925Z,26.06
2023-05-05T14:16:07.750Z,26.18
2023-05-05T14:17:07.658Z,26.16
2023-05-05T14:18:07.778Z,26.24
2023-05-05T14:19:07.695Z,26.26
2023-05-05T14:20:07.743Z,26.35
2023-05-05T14:21:07.755Z,26.33
2023-05-05T14:22:07.736Z,26.36
2023-05-05T14:23:07.807Z,26.36
2023-05-05T14:24:07.794Z,26.35
2023-05-05T14:25:07.911Z,26.42
2023-05-05T14:26:07.853Z,26.45
2023-05-05T14:27:07.793Z,26.43
2023-05-05T14:28:07.848Z,26.53
2023-05-05T14:29:07.813Z,26.55
2023-05-05T14:30:07.912Z,26.55
2023-05-05T14:31:07.832Z,26.54
2023-05-05T14:32:07.879Z,26.59
2023-05-05T14:33:07.917Z,26.58
2023-05-05T14:34:07.862Z,26.64
2023-05-05T14:35:08.045Z,26.63
2023-05-05T14:36:07.883Z,26.63
2023-05-05T14:37:07.890Z,26.69
2023-05-05T14:38:07.915Z,26.69
2023-05-05T14:39:07.877Z,26.67
2023-05-05T14:40:07.924Z,26.68
2023-05-05T14:41:07.877Z,26.68
2023-05-05T14:42:07.952Z,26.68
2023-05-05T14:43:07.973Z,26.73
2023-05-05T14:44:07.918Z,26.76
2023-05-05T14:45:08.144Z,26.77
2023-05-05T14:46:07.949Z,26.79
2023-05-05T14:47:07.920Z,26.76
2023-05-05T14:48:07.940Z,26.75
2023-05-05T14:49:07.969Z,26.77
2023-05-05T14:50:07.968Z,26.79
2023-05-05T14:51:07.991Z,26.81
2023-05-05T14:52:07.947Z,26.86
2023-05-05T14:53:07.968Z,26.84
2023-05-05T14:54:20.470Z,26.82
2023-05-05T14:55:09.257Z,26.87
2023-05-05T14:56:07.979Z,26.88
2023-05-05T14:57:07.997Z,26.91
2023-05-05T14:58:08.013Z,26.88
2023-05-05T14:59:07.977Z,26.94
2023-05-05T15:00:07.943Z,26.96
2023-05-05T15:01:08.010Z,26.97
2023-05-05T15:02:07.936Z,26.96
2023-05-05T15:03:08.021Z,26.95
2023-05-05T15:04:07.920Z,26.98
2023-05-05T15:05:08.226Z,27.03
2023-05-05T15:06:07.924Z,27.00
2023-05-05T15:07:07.916Z,27.00
2023-05-05T15:08:07.918Z,27.03
2023-05-05T15:09:07.895Z,27.02
2023-05-05T15:10:07.896Z,27.03
2023-05-05T15:11:07.921Z,27.05
2023-05-05T15:12:07.863Z,27.07
2023-05-05T15:13:07.972Z,27.07
2023-05-05T15:14:07.849Z,27.08
2023-05-05T15:15:08.070Z,27.09
2023-05-05T15:16:07.970Z,27.12
2023-05-05T15:17:07.894Z,27.16
2023-05-05T15:18:07.916Z,27.15
2023-05-05T15:19:07.909Z,27.17
2023-05-05T15:20:07.950Z,27.17
2023-05-05T15:21:08.035Z,27.18
2023-05-05T15:22:08.013Z,27.22
2023-05-05T15:23:08.064Z,27.23
2023-05-05T15:24:08.043Z,27.23
2023-05-05T15:25:08.277Z,27.25
2023-05-05T15:26:08.083Z,27.28
2023-05-05T15:27:08.163Z,27.29
2023-05-05T15:28:08.160Z,27.28
2023-05-05T15:29:08.186Z,27.29
2023-05-05T15:30:08.264Z,27.30
2023-05-05T15:31:08.231Z,27.30
2023-05-05T15:32:08.313Z,27.33
2023-05-05T15:33:08.255Z,27.32
2023-05-05T15:34:08.309Z,27.31
2023-05-05T15:35:08.512Z,27.33
2023-05-05T15:36:08.358Z,27.34
2023-05-05T15:37:08.440Z,27.35
2023-05-05T15:38:08.452Z,27.36
2023-05-05T15:39:08.459Z,27.35
2023-05-05T15:40:08.519Z,27.39
2023-05-05T15:41:08.559Z,27.41
2023-05-05T15:42:08.578Z,27.40
2023-05-05T15:43:08.707Z,27.43
2023-05-05T15:44:08.622Z,27.40
2023-05-05T15:45:08.923Z,27.43
2023-05-05T15:46:08.762Z,27.46
2023-05-05T15:47:08.804Z,27.46
2023-05-05T15:48:08.810Z,27.46
2023-05-05T15:49:08.814Z,27.46
2023-05-05T15:50:08.859Z,27.49
2023-05-05T15:51:08.907Z,27.49
2023-05-05T15:52:08.925Z,27.49
2023-05-05T15:53:08.951Z,27.49
2023-05-05T15:54:09.004Z,27.53
2023-05-05T15:55:09.169Z,27.50
2023-05-05T15:56:09.062Z,27.53
2023-05-05T15:57:09.082Z,27.54
2023-05-05T15:58:09.158Z,27.56
2023-05-05T15:59:09.164Z,27.55
2023-05-05T16:00:09.226Z,27.56
2023-05-05T16:01:09.314Z,27.57
2023-05-05T16:02:09.404Z,27.59
2023-05-05T16:03:09.551Z,27.59
2023-05-05T16:04:09.421Z,27.60
2023-05-05T16:05:09.736Z,27.60
2023-05-05T16:06:09.498Z,27.62
2023-05-05T16:07:09.548Z,27.61
2023-05-05T16:08:09.602Z,27.62
2023-05-05T16:09:09.661Z,27.62
2023-05-05T16:10:09.654Z,27.64
2023-05-05T16:11:09.699Z,27.67
2023-05-05T16:12:09.795Z,27.65
2023-05-05T16:13:09.857Z,27.68
2023-05-05T16:14:09.850Z,27.68
2023-05-05T16:15:10.223Z,27.70
2023-05-05T16:16:09.988Z,27.70
2023-05-05T16:17:09.937Z,27.72
2023-05-05T16:18:10.073Z,27.70
2023-05-05T16:19:10.083Z,27.71
2023-05-05T16:20:10.087Z,27.72
2023-05-05T16:21:10.128Z,27.71
2023-05-05T16:22:10.192Z,27.73
2023-05-05T16:23:10.200Z,27.76
2023-05-05T16:24:10.267Z,27.74
2023-05-05T16:25:10.516Z,27.76
2023-05-05T16:26:10.366Z,27.74
2023-05-05T16:27:10.371Z,27.76
2023-05-05T16:28:10.403Z,27.79
2023-05-05T16:29:10.527Z,27.77
2023-05-05T16:30:10.499Z,27.77
2023-05-05T16:31:10.741Z,27.76
2023-05-05T16:32:10.615Z,27.80
2023-05-05T16:33:10.769Z,27.78
2023-05-05T16:34:10.769Z,27.83
2023-05-05T16:35:10.828Z,27.82
2023-05-05T16:36:10.803Z,27.84
2023-05-05T16:37:10.859Z,27.84
2023-05-05T16:38:10.876Z,27.85
2023-05-05T16:39:10.929Z,27.86
2023-05-05T16:40:10.991Z,27.88
2023-05-05T16:41:11.028Z,27.86
2023-05-05T16:42:11.089Z,27.88
2023-05-05T16:43:11.176Z,27.90
2023-05-05T16:44:11.169Z,27.91
2023-05-05T16:45:11.470Z,27.93
2023-05-05T16:46:11.347Z,27.95
2023-05-05T16:47:11.336Z,27.93
2023-05-05T16:48:11.413Z,27.94
2023-05-05T16:49:11.457Z,27.94
2023-05-05T16:50:11.545Z,27.96
2023-05-05T16:51:11.530Z,27.94
2023-05-05T16:52:11.578Z,27.96
2023-05-05T16:53:11.623Z,27.96
2023-05-05T16:54:11.688Z,28.00
2023-05-05T16:55:11.881Z,27.96
2023-05-05T16:56:11.798Z,28.01
2023-05-05T16:57:11.836Z,27.99
2023-05-05T16:58:11.848Z,28.00
2023-05-05T16:59:11.913Z,28.01
2023-05-05T17:00:11.991Z,28.00
